createdAt,value
2023-04-26T00:03:30.364Z,3518
2023-04-26T00:13:30.205Z,3518
2023-04-26T00:23:30.153Z,3518
2023-04-26T00:33:30.174Z,3518
2023-04-26T00:43:30.157Z,3518
2023-04-26T00:53:30.115Z,3518
2023-04-26T01:03:30.247Z,3516
2023-04-26T01:13:30.113Z,3516
2023-04-26T01:23:30.090Z,3516
2023-04-26T01:33:30.119Z,3518
2023-04-26T01:43:30.071Z,3516
2023-04-26T01:53:30.046Z,3513
2023-04-26T02:13:30.051Z,3516
2023-04-26T02:23:29.991Z,3513
2023-04-26T02:33:30.023Z,3513
2023-04-26T02:43:29.980Z,3513
2023-04-26T02:53:29.984Z,3513
2023-04-26T03:03:30.181Z,3513
2023-04-26T03:13:29.933Z,3513
2023-04-26T03:23:29.959Z,3511
2023-04-26T03:33:29.927Z,3513
2023-04-26T03:43:29.905Z,3513
2023-04-26T03:53:29.889Z,3513
2023-04-26T04:03:30.090Z,3513
2023-04-26T04:13:29.898Z,3511
2023-04-26T04:23:29.854Z,3513
2023-04-26T04:33:29.886Z,3511
2023-04-26T04:43:29.853Z,3513
2023-04-26T04:53:29.838Z,3511
2023-04-26T05:03:29.944Z,3511
2023-04-26T05:13:29.802Z,3511
2023-04-26T05:23:29.790Z,3513
2023-04-26T05:33:29.807Z,3513
2023-04-26T05:43:29.770Z,3513
2023-04-26T05:53:29.775Z,3513
2023-04-26T06:03:29.998Z,3513
2023-04-26T06:13:29.729Z,3513
2023-04-26T06:23:29.704Z,3513
2023-04-26T06:33:29.726Z,3516
2023-04-26T06:43:29.715Z,3516
2023-04-26T06:53:29.738Z,3518
2023-04-26T07:03:29.792Z,3518
2023-04-26T07:13:29.689Z,3518
2023-04-26T07:23:29.649Z,3521
2023-04-26T07:33:29.843Z,3523
2023-04-26T07:43:29.596Z,3523
2023-04-26T07:53:29.609Z,3523
2023-04-26T08:03:29.793Z,3523
2023-04-26T08:13:29.732Z,3526
2023-04-26T08:23:29.540Z,3528
2023-04-26T08:33:29.565Z,3528
2023-04-26T08:43:29.508Z,3528
2023-04-26T08:53:29.516Z,3528
2023-04-26T09:03:29.655Z,3531
2023-04-26T09:13:29.473Z,3533
2023-04-26T09:23:35.499Z,3533
2023-04-26T09:33:29.416Z,3538
2023-04-26T09:43:29.401Z,3541
2023-04-26T09:53:29.374Z,3543
2023-04-26T10:03:29.609Z,3548
2023-04-26T10:13:29.357Z,3548
2023-04-26T10:23:29.299Z,3551
2023-04-26T10:33:29.311Z,3553
2023-04-26T10:43:29.271Z,3553
2023-04-26T10:53:29.264Z,3556
2023-04-26T11:03:29.463Z,3556
2023-04-26T11:13:29.212Z,3558
2023-04-26T11:23:29.211Z,3561
2023-04-26T11:33:29.166Z,3558
2023-04-26T11:43:29.207Z,3561
2023-04-26T11:53:29.126Z,3558
2023-04-26T12:03:29.290Z,3563
2023-04-26T12:13:29.087Z,3561
2023-04-26T12:23:29.085Z,3563
2023-04-26T12:33:29.094Z,3563
2023-04-26T12:43:29.029Z,3563
2023-04-26T12:53:28.977Z,3563
2023-04-26T13:03:29.168Z,3563
2023-04-26T13:13:39.850Z,3566
2023-04-26T13:23:28.914Z,3569
2023-04-26T13:33:28.908Z,3569
2023-04-26T13:43:28.913Z,3569
2023-04-26T13:53:28.896Z,3569
2023-04-26T14:03:28.988Z,3571
2023-04-26T14:13:28.818Z,3571
2023-04-26T14:23:28.810Z,3574
2023-04-26T14:33:28.762Z,3569
2023-04-26T14:43:28.764Z,3571
2023-04-26T14:53:28.708Z,3569
2023-04-26T15:03:29.118Z,3569
2023-04-26T15:13:28.693Z,3569
2023-04-26T15:23:28.660Z,3563
2023-04-26T15:33:28.624Z,3563
2023-04-26T15:43:28.651Z,3561
2023-04-26T15:53:28.607Z,3561
2023-04-26T16:03:28.689Z,3561
2023-04-26T16:13:28.571Z,3561
2023-04-26T16:23:28.545Z,3558
2023-04-26T16:33:28.606Z,3558
2023-04-26T16:43:28.506Z,3558
2023-04-26T16:53:28.449Z,3558
2023-04-26T17:03:28.605Z,3556
2023-04-26T17:13:28.407Z,3556
2023-04-26T17:23:28.412Z,3556
2023-04-26T17:33:28.369Z,3553
2023-04-26T17:43:28.360Z,3553
2023-04-26T17:53:28.362Z,3553
2023-04-26T18:03:28.491Z,3553
2023-04-26T18:13:28.282Z,3553
2023-04-26T18:23:28.268Z,3548
2023-04-26T18:33:28.232Z,3548
2023-04-26T18:43:28.215Z,3548
2023-04-26T18:53:28.221Z,3548
2023-04-26T19:03:28.340Z,3546
2023-04-26T19:13:28.177Z,3548
2023-04-26T19:23:28.152Z,3546
2023-04-26T19:33:28.154Z,3546
2023-04-26T19:43:28.088Z,3543
2023-04-26T19:53:28.068Z,3543
2023-04-26T20:03:28.454Z,3543
2023-04-26T20:13:28.064Z,3543
2023-04-26T20:23:28.031Z,3543
2023-04-26T20:33:27.999Z,3541
2023-04-26T20:43:27.976Z,3543
2023-04-26T20:53:28.012Z,3541
2023-04-26T21:03:28.169Z,3538
2023-04-26T21:13:27.944Z,3541
2023-04-26T21:23:27.899Z,3538
2023-04-26T21:33:27.896Z,3538
2023-04-26T21:43:27.897Z,3541
2023-04-26T21:53:27.844Z,3536
2023-04-26T22:03:27.981Z,3538
2023-04-26T22:13:27.803Z,3536
2023-04-26T22:23:27.811Z,3538
2023-04-26T22:33:27.895Z,3538
2023-04-26T22:43:27.800Z,3536
2023-04-26T22:53:27.727Z,3538
2023-04-26T23:03:27.917Z,3538
2023-04-26T23:13:27.710Z,3536
2023-04-26T23:23:27.712Z,3536
2023-04-26T23:33:27.681Z,3536
2023-04-26T23:43:27.674Z,3533
2023-04-26T23:53:27.666Z,3533
